Saturday, April 19, 2014
22:07 UTC
  |  Log In   |  Register Free
Airport Search:

Heart Of Georgia Regional Airport
(KEZM)

FAA data valid effective April 3, 2014 until May 29, 2014 (unless otherwise noted).

 
 
 
 
 
 
 
 
 
 
 
 
 
 

Current Aviation Weather for Heart Of Georgia Regional Airport (KEZM)

The most recent METAR observation for KEZM was updated at: 2155 UTC
METAR Summary (Translated METAR)
KEZM
192155Z AUTO 02007KT 5SM BR OVC007 16/16 A3005 RMK AO2 LTG DSNT E AND SE T01590159
KDBN
(22.1 nm NE from KEZM)
192135Z AUTO 02007KT 7SM -RA SCT008 OVC013 14/13 A3005 RMK AO2
TAF Summary (Translated TAF)
KWRB
(34.6 nm NW from KEZM)
1921/2103 36010G15KT 9999 BKN013 BKN015 520105 QNH2982INS TEMPO 1921/1922 35015G25KT BECMG 1923/1924 01007KT 9999 OVC016 520105 QNH2990INS BECMG 2014/2015 04012G18KT 9999 OVC020 QNH3002INS BECMG 2021/2022 07009KT 9999 BKN030 QNH3010INS TX18/2020Z TN09/2011Z
  Airport Weather Conditions for KEZM

 Current Weather at EZM
61° F
Drizzle
Northeast winds at 10.4 mph
EZM NOAA Radar

Pressure: 30.03 in
Humidity: 100%
Wind: Northeast at 10.4 MPH (9 KT)
Dew Point: 61.0°F
Visibility: 4.00 mi


Airport Weather Forecast for KEZM

Translated METAR and TAF for KEZM
Translated METAR for KEZM (2207 UTC 19 April 2014)
found at http://aviationweather.gov/adds/metars/
 
METAR text: KEZM 192155Z AUTO 02007KT 5SM BR OVC007 16/16 A3005 RMK AO2 LTG DSNT E AND SE T01590159
Conditions at: KEZM (EASTMAN , GA, US) observed 2155 UTC 19 April 2014
Temperature: 15.9°C (61°F)
Dewpoint: 15.9°C (61°F) [RH = 100%]
Pressure (altimeter): 30.05 inches Hg (1017.7 mb)
Winds: from the NNE (20 degrees) at 8 MPH (7 knots; 3.6 m/s)
Visibility: 5 miles (8 km)
Ceiling: 700 feet AGL
Clouds: overcast cloud deck at 700 feet AGL
Weather: BR  (mist)
Translated TAF for KEZM

There is no translated TAF available for this airport

Find All Airport Services Find A Hotel Find A Rental Car Find A Golf Course Find A Restaurant $100 Hamburger



FBO's on the Field
FBO Company Facility Photos Services Transportation Aviation Fuel Prices: Prices include tax
Catering Weather Repair Courtesy Rental Type 100LL JetA JetA+ MOGAS 8087
 
Heart of Georgia Regional Airport

This FBO has not yet been rated
FS:Phillips66
Last Updated: Apr-01
Login to update fuel prices
SS:
Contact Heart of Georgia Regional AirportMore FBO Information
 
Add another FBO Facility Photos Catering Weather Repair Courtesy Rental Type 100LL JetA JetA+ MOGAS 8087
Services Transportation Aviation Fuel Prices: Prices include tax


GlobalAir.com Airport Resource Center model-print
model-print
model-print
model-print